sensor_id;sensor_type;location;lat;lon;timestamp;P1;durP1;ratioP1;P2;durP2;ratioP2
14013;SDS011;49110;52.584;13.408;2023-04-15T00:00:04;28.90;;;24.00;;
14013;SDS011;49110;52.584;13.408;2023-04-15T00:01:06;25.13;;;22.43;;
14013;SDS011;49110;52.584;13.408;2023-04-15T00:02:16;26.67;;;23.80;;
14013;SDS011;49110;52.584;13.408;2023-04-15T00:03:17;27.47;;;24.27;;
14013;SDS011;49110;52.584;13.408;2023-04-15T00:04:18;30.17;;;24.97;;
14013;SDS011;49110;52.584;13.408;2023-04-15T00:05:19;31.13;;;25.40;;
14013;SDS011;49110;52.584;13.408;2023-04-15T00:06:20;26.53;;;23.73;;
14013;SDS011;49110;52.584;13.408;2023-04-15T00:07:21;26.07;;;23.30;;
14013;SDS011;49110;52.584;13.408;2023-04-15T00:08:21;28.87;;;24.73;;
14013;SDS011;49110;52.584;13.408;2023-04-15T00:09:22;26.50;;;23.20;;
14013;SDS011;49110;52.584;13.408;2023-04-15T00:10:23;28.43;;;23.97;;
14013;SDS011;49110;52.584;13.408;2023-04-15T00:11:24;27.70;;;24.47;;
14013;SDS011;49110;52.584;13.408;2023-04-15T00:12:25;25.83;;;23.03;;
14013;SDS011;49110;52.584;13.408;2023-04-15T00:13:26;29.60;;;24.67;;
14013;SDS011;49110;52.584;13.408;2023-04-15T00:14:27;27.87;;;24.33;;
14013;SDS011;49110;52.584;13.408;2023-04-15T00:15:27;27.60;;;23.60;;
14013;SDS011;49110;52.584;13.408;2023-04-15T00:16:28;28.67;;;23.30;;
14013;SDS011;49110;52.584;13.408;2023-04-15T00:17:29;27.83;;;23.50;;
14013;SDS011;49110;52.584;13.408;2023-04-15T00:18:29;29.43;;;23.60;;
14013;SDS011;49110;52.584;13.408;2023-04-15T00:19:30;26.37;;;22.70;;
14013;SDS011;49110;52.584;13.408;2023-04-15T00:20:31;31.03;;;25.13;;
14013;SDS011;49110;52.584;13.408;2023-04-15T00:21:32;32.23;;;25.80;;
14013;SDS011;49110;52.584;13.408;2023-04-15T00:22:33;31.13;;;25.30;;
14013;SDS011;49110;52.584;13.408;2023-04-15T00:23:33;29.10;;;24.53;;
14013;SDS011;49110;52.584;13.408;2023-04-15T00:24:35;28.00;;;24.60;;
14013;SDS011;49110;52.584;13.408;2023-04-15T00:25:36;32.50;;;25.87;;
14013;SDS011;49110;52.584;13.408;2023-04-15T00:26:36;30.63;;;24.73;;
14013;SDS011;49110;52.584;13.408;2023-04-15T00:27:37;27.57;;;24.37;;
14013;SDS011;49110;52.584;13.408;2023-04-15T00:28:37;30.87;;;25.97;;
14013;SDS011;49110;52.584;13.408;2023-04-15T00:29:38;28.27;;;24.33;;
14013;SDS011;49110;52.584;13.408;2023-04-15T00:30:38;32.00;;;25.17;;
14013;SDS011;49110;52.584;13.408;2023-04-15T00:31:39;29.70;;;24.87;;
14013;SDS011;49110;52.584;13.408;2023-04-15T00:32:41;27.87;;;23.53;;
14013;SDS011;49110;52.584;13.408;2023-04-15T00:33:41;31.87;;;25.63;;
14013;SDS011;49110;52.584;13.408;2023-04-15T00:34:42;29.80;;;24.37;;
14013;SDS011;49110;52.584;13.408;2023-04-15T00:35:42;34.77;;;26.80;;
14013;SDS011;49110;52.584;13.408;2023-04-15T00:36:43;30.07;;;25.43;;
14013;SDS011;49110;52.584;13.408;2023-04-15T00:37:43;33.90;;;26.73;;
14013;SDS011;49110;52.584;13.408;2023-04-15T00:38:44;36.57;;;25.87;;
14013;SDS011;49110;52.584;13.408;2023-04-15T00:39:44;32.13;;;26.00;;
14013;SDS011;49110;52.584;13.408;2023-04-15T00:40:45;32.60;;;26.63;;
14013;SDS011;49110;52.584;13.408;2023-04-15T00:41:45;31.63;;;25.23;;
14013;SDS011;49110;52.584;13.408;2023-04-15T00:42:46;30.87;;;25.63;;
14013;SDS011;49110;52.584;13.408;2023-04-15T00:43:46;35.33;;;28.00;;
14013;SDS011;49110;52.584;13.408;2023-04-15T00:44:47;34.90;;;27.37;;
14013;SDS011;49110;52.584;13.408;2023-04-15T00:45:48;32.57;;;25.90;;
14013;SDS011;49110;52.584;13.408;2023-04-15T00:46:52;31.30;;;25.63;;
14013;SDS011;49110;52.584;13.408;2023-04-15T00:47:53;32.00;;;26.17;;
14013;SDS011;49110;52.584;13.408;2023-04-15T00:48:54;31.77;;;26.50;;
14013;SDS011;49110;52.584;13.408;2023-04-15T00:49:55;32.53;;;26.37;;
14013;SDS011;49110;52.584;13.408;2023-04-15T00:50:56;32.83;;;26.20;;
14013;SDS011;49110;52.584;13.408;2023-04-15T00:51:57;34.60;;;28.00;;
14013;SDS011;49110;52.584;13.408;2023-04-15T00:52:58;32.17;;;26.47;;
14013;SDS011;49110;52.584;13.408;2023-04-15T00:53:58;38.40;;;28.37;;
14013;SDS011;49110;52.584;13.408;2023-04-15T00:54:59;36.07;;;27.43;;
14013;SDS011;49110;52.584;13.408;2023-04-15T00:56:00;34.50;;;27.73;;
14013;SDS011;49110;52.584;13.408;2023-04-15T00:57:00;36.50;;;27.87;;
14013;SDS011;49110;52.584;13.408;2023-04-15T00:58:01;31.97;;;26.17;;
14013;SDS011;49110;52.584;13.408;2023-04-15T00:59:02;34.30;;;26.87;;
14013;SDS011;49110;52.584;13.408;2023-04-15T01:00:04;34.77;;;27.93;;
14013;SDS011;49110;52.584;13.408;2023-04-15T01:01:06;36.17;;;27.47;;
14013;SDS011;49110;52.584;13.408;2023-04-15T01:02:07;37.03;;;27.97;;
14013;SDS011;49110;52.584;13.408;2023-04-15T01:03:08;36.20;;;27.27;;
14013;SDS011;49110;52.584;13.408;2023-04-15T01:04:09;36.23;;;27.83;;
14013;SDS011;49110;52.584;13.408;2023-04-15T01:05:10;40.63;;;28.57;;
14013;SDS011;49110;52.584;13.408;2023-04-15T01:06:10;35.13;;;26.97;;
14013;SDS011;49110;52.584;13.408;2023-04-15T01:07:11;35.43;;;27.63;;
14013;SDS011;49110;52.584;13.408;2023-04-15T01:08:12;33.63;;;27.33;;
14013;SDS011;49110;52.584;13.408;2023-04-15T01:09:12;33.10;;;25.73;;
14013;SDS011;49110;52.584;13.408;2023-04-15T01:10:13;30.27;;;25.03;;
14013;SDS011;49110;52.584;13.408;2023-04-15T01:11:14;34.90;;;27.07;;
14013;SDS011;49110;52.584;13.408;2023-04-15T01:12:15;36.83;;;28.37;;
14013;SDS011;49110;52.584;13.408;2023-04-15T01:13:16;35.60;;;28.10;;
14013;SDS011;49110;52.584;13.408;2023-04-15T01:14:18;36.20;;;28.07;;
14013;SDS011;49110;52.584;13.408;2023-04-15T01:15:19;33.73;;;27.13;;
14013;SDS011;49110;52.584;13.408;2023-04-15T01:16:20;34.60;;;26.40;;
14013;SDS011;49110;52.584;13.408;2023-04-15T01:17:20;37.83;;;28.17;;
14013;SDS011;49110;52.584;13.408;2023-04-15T01:18:21;34.77;;;27.67;;
14013;SDS011;49110;52.584;13.408;2023-04-15T01:19:22;35.53;;;26.33;;
14013;SDS011;49110;52.584;13.408;2023-04-15T01:20:22;37.03;;;28.93;;
14013;SDS011;49110;52.584;13.408;2023-04-15T01:21:23;37.27;;;28.83;;
14013;SDS011;49110;52.584;13.408;2023-04-15T01:22:24;37.10;;;28.30;;
14013;SDS011;49110;52.584;13.408;2023-04-15T01:23:26;36.60;;;29.13;;
14013;SDS011;49110;52.584;13.408;2023-04-15T01:24:27;36.10;;;27.77;;
14013;SDS011;49110;52.584;13.408;2023-04-15T01:25:33;36.13;;;28.40;;
14013;SDS011;49110;52.584;13.408;2023-04-15T01:26:34;34.97;;;27.20;;
14013;SDS011;49110;52.584;13.408;2023-04-15T01:27:38;36.70;;;28.10;;
14013;SDS011;49110;52.584;13.408;2023-04-15T01:28:39;36.47;;;28.63;;
14013;SDS011;49110;52.584;13.408;2023-04-15T01:29:40;39.20;;;29.20;;
14013;SDS011;49110;52.584;13.408;2023-04-15T01:30:42;39.43;;;28.93;;
14013;SDS011;49110;52.584;13.408;2023-04-15T01:31:54;39.90;;;29.57;;
14013;SDS011;49110;52.584;13.408;2023-04-15T01:32:55;40.03;;;29.07;;
14013;SDS011;49110;52.584;13.408;2023-04-15T01:33:56;40.23;;;29.93;;
14013;SDS011;49110;52.584;13.408;2023-04-15T01:34:56;38.00;;;28.90;;
14013;SDS011;49110;52.584;13.408;2023-04-15T01:35:57;41.33;;;29.80;;
14013;SDS011;49110;52.584;13.408;2023-04-15T01:36:57;40.47;;;29.03;;
14013;SDS011;49110;52.584;13.408;2023-04-15T01:38:01;39.53;;;29.33;;
14013;SDS011;49110;52.584;13.408;2023-04-15T01:39:05;41.73;;;30.33;;
14013;SDS011;49110;52.584;13.408;2023-04-15T01:40:05;40.57;;;29.80;;
14013;SDS011;49110;52.584;13.408;2023-04-15T01:41:06;36.47;;;28.23;;
14013;SDS011;49110;52.584;13.408;2023-04-15T01:42:07;40.53;;;29.50;;
14013;SDS011;49110;52.584;13.408;2023-04-15T01:43:08;37.60;;;28.73;;
14013;SDS011;49110;52.584;13.408;2023-04-15T01:44:08;42.30;;;29.87;;
14013;SDS011;49110;52.584;13.408;2023-04-15T01:45:09;41.37;;;30.03;;
14013;SDS011;49110;52.584;13.408;2023-04-15T01:46:09;40.13;;;29.90;;
14013;SDS011;49110;52.584;13.408;2023-04-15T01:47:10;40.23;;;29.90;;
14013;SDS011;49110;52.584;13.408;2023-04-15T01:48:11;35.77;;;27.17;;
14013;SDS011;49110;52.584;13.408;2023-04-15T01:49:12;40.10;;;28.20;;
14013;SDS011;49110;52.584;13.408;2023-04-15T01:50:12;40.83;;;29.93;;
14013;SDS011;49110;52.584;13.408;2023-04-15T01:51:13;41.93;;;29.23;;
14013;SDS011;49110;52.584;13.408;2023-04-15T01:52:13;38.63;;;28.80;;
14013;SDS011;49110;52.584;13.408;2023-04-15T01:53:14;38.03;;;29.17;;
14013;SDS011;49110;52.584;13.408;2023-04-15T01:54:15;39.47;;;28.53;;
14013;SDS011;49110;52.584;13.408;2023-04-15T01:55:16;37.57;;;28.77;;
14013;SDS011;49110;52.584;13.408;2023-04-15T01:56:17;39.83;;;29.93;;
14013;SDS011;49110;52.584;13.408;2023-04-15T01:57:17;41.67;;;30.33;;
14013;SDS011;49110;52.584;13.408;2023-04-15T01:58:18;39.57;;;28.77;;
14013;SDS011;49110;52.584;13.408;2023-04-15T01:59:18;35.47;;;28.03;;
14013;SDS011;49110;52.584;13.408;2023-04-15T02:00:20;36.77;;;28.23;;
14013;SDS011;49110;52.584;13.408;2023-04-15T02:01:21;37.43;;;27.50;;
14013;SDS011;49110;52.584;13.408;2023-04-15T02:02:22;36.40;;;28.27;;
14013;SDS011;49110;52.584;13.408;2023-04-15T02:03:23;37.10;;;28.70;;
14013;SDS011;49110;52.584;13.408;2023-04-15T02:04:24;39.07;;;29.03;;
14013;SDS011;49110;52.584;13.408;2023-04-15T02:05:25;38.47;;;28.80;;
14013;SDS011;49110;52.584;13.408;2023-04-15T02:06:26;38.27;;;28.43;;
14013;SDS011;49110;52.584;13.408;2023-04-15T02:07:27;40.60;;;29.80;;
14013;SDS011;49110;52.584;13.408;2023-04-15T02:08:31;40.73;;;29.17;;
14013;SDS011;49110;52.584;13.408;2023-04-15T02:09:31;38.97;;;29.10;;
14013;SDS011;49110;52.584;13.408;2023-04-15T02:10:32;37.90;;;28.30;;
14013;SDS011;49110;52.584;13.408;2023-04-15T02:11:32;41.83;;;29.17;;
14013;SDS011;49110;52.584;13.408;2023-04-15T02:12:34;41.87;;;28.90;;
14013;SDS011;49110;52.584;13.408;2023-04-15T02:13:35;42.23;;;29.07;;
14013;SDS011;49110;52.584;13.408;2023-04-15T02:14:35;40.93;;;28.93;;
14013;SDS011;49110;52.584;13.408;2023-04-15T02:15:36;40.50;;;29.23;;
14013;SDS011;49110;52.584;13.408;2023-04-15T02:16:36;39.53;;;29.13;;
14013;SDS011;49110;52.584;13.408;2023-04-15T02:17:37;39.90;;;29.33;;
14013;SDS011;49110;52.584;13.408;2023-04-15T02:18:37;41.60;;;29.30;;
14013;SDS011;49110;52.584;13.408;2023-04-15T02:19:38;40.87;;;29.50;;
14013;SDS011;49110;52.584;13.408;2023-04-15T02:20:39;38.40;;;28.87;;
14013;SDS011;49110;52.584;13.408;2023-04-15T02:21:39;41.07;;;29.03;;
14013;SDS011;49110;52.584;13.408;2023-04-15T02:22:40;39.53;;;28.77;;
14013;SDS011;49110;52.584;13.408;2023-04-15T02:23:41;35.57;;;28.37;;
14013;SDS011;49110;52.584;13.408;2023-04-15T02:24:43;40.27;;;29.67;;
14013;SDS011;49110;52.584;13.408;2023-04-15T02:25:44;37.43;;;28.97;;
14013;SDS011;49110;52.584;13.408;2023-04-15T02:26:46;40.13;;;29.40;;
14013;SDS011;49110;52.584;13.408;2023-04-15T02:27:46;42.97;;;30.33;;
14013;SDS011;49110;52.584;13.408;2023-04-15T02:28:47;39.90;;;29.60;;
14013;SDS011;49110;52.584;13.408;2023-04-15T02:29:50;39.53;;;28.83;;
14013;SDS011;49110;52.584;13.408;2023-04-15T02:30:51;42.50;;;30.10;;
14013;SDS011;49110;52.584;13.408;2023-04-15T02:31:52;39.90;;;29.77;;
14013;SDS011;49110;52.584;13.408;2023-04-15T02:32:52;39.73;;;29.57;;
14013;SDS011;49110;52.584;13.408;2023-04-15T02:33:53;40.33;;;29.37;;
14013;SDS011;49110;52.584;13.408;2023-04-15T02:34:53;40.50;;;30.33;;
14013;SDS011;49110;52.584;13.408;2023-04-15T02:35:54;38.80;;;29.50;;
14013;SDS011;49110;52.584;13.408;2023-04-15T02:36:55;37.50;;;27.90;;
14013;SDS011;49110;52.584;13.408;2023-04-15T02:37:56;43.83;;;30.33;;
14013;SDS011;49110;52.584;13.408;2023-04-15T02:38:57;40.07;;;29.83;;
14013;SDS011;49110;52.584;13.408;2023-04-15T02:39:57;40.43;;;29.40;;
14013;SDS011;49110;52.584;13.408;2023-04-15T02:40:58;42.30;;;29.60;;
14013;SDS011;49110;52.584;13.408;2023-04-15T02:41:59;43.77;;;30.67;;
14013;SDS011;49110;52.584;13.408;2023-04-15T02:43:00;42.43;;;30.17;;
14013;SDS011;49110;52.584;13.408;2023-04-15T02:44:00;38.40;;;27.87;;
14013;SDS011;49110;52.584;13.408;2023-04-15T02:45:01;41.70;;;29.73;;
14013;SDS011;49110;52.584;13.408;2023-04-15T02:46:01;41.40;;;29.37;;
14013;SDS011;49110;52.584;13.408;2023-04-15T02:47:02;42.80;;;30.30;;
14013;SDS011;49110;52.584;13.408;2023-04-15T02:48:04;38.17;;;27.73;;
14013;SDS011;49110;52.584;13.408;2023-04-15T02:49:05;42.27;;;29.93;;
14013;SDS011;49110;52.584;13.408;2023-04-15T02:50:06;40.67;;;29.17;;
14013;SDS011;49110;52.584;13.408;2023-04-15T02:52:18;39.50;;;28.47;;
14013;SDS011;49110;52.584;13.408;2023-04-15T02:53:19;41.57;;;29.37;;
14013;SDS011;49110;52.584;13.408;2023-04-15T02:54:20;39.43;;;28.80;;
14013;SDS011;49110;52.584;13.408;2023-04-15T02:55:25;41.83;;;29.40;;
14013;SDS011;49110;52.584;13.408;2023-04-15T02:56:25;39.60;;;29.90;;
14013;SDS011;49110;52.584;13.408;2023-04-15T02:57:26;40.50;;;29.47;;
14013;SDS011;49110;52.584;13.408;2023-04-15T02:58:30;41.33;;;30.63;;
14013;SDS011;49110;52.584;13.408;2023-04-15T02:59:30;43.90;;;30.20;;
14013;SDS011;49110;52.584;13.408;2023-04-15T03:00:31;38.50;;;28.17;;
14013;SDS011;49110;52.584;13.408;2023-04-15T03:01:32;39.83;;;29.47;;
14013;SDS011;49110;52.584;13.408;2023-04-15T03:02:33;40.77;;;28.87;;
14013;SDS011;49110;52.584;13.408;2023-04-15T03:03:37;39.60;;;28.33;;
14013;SDS011;49110;52.584;13.408;2023-04-15T03:04:37;40.13;;;28.07;;
14013;SDS011;49110;52.584;13.408;2023-04-15T03:05:38;40.30;;;28.53;;
14013;SDS011;49110;52.584;13.408;2023-04-15T03:06:39;35.50;;;27.13;;
14013;SDS011;49110;52.584;13.408;2023-04-15T03:07:39;39.83;;;28.13;;
14013;SDS011;49110;52.584;13.408;2023-04-15T03:08:40;41.27;;;28.93;;
14013;SDS011;49110;52.584;13.408;2023-04-15T03:09:40;40.30;;;28.27;;
14013;SDS011;49110;52.584;13.408;2023-04-15T03:10:41;38.07;;;29.00;;
14013;SDS011;49110;52.584;13.408;2023-04-15T03:11:42;41.73;;;29.13;;
14013;SDS011;49110;52.584;13.408;2023-04-15T03:12:42;39.93;;;27.33;;
14013;SDS011;49110;52.584;13.408;2023-04-15T03:13:43;41.40;;;29.30;;
14013;SDS011;49110;52.584;13.408;2023-04-15T03:14:43;38.20;;;27.93;;
14013;SDS011;49110;52.584;13.408;2023-04-15T03:15:45;39.13;;;28.17;;
14013;SDS011;49110;52.584;13.408;2023-04-15T03:16:46;34.37;;;26.23;;
14013;SDS011;49110;52.584;13.408;2023-04-15T03:17:47;35.70;;;26.97;;
14013;SDS011;49110;52.584;13.408;2023-04-15T03:18:48;36.10;;;27.47;;
14013;SDS011;49110;52.584;13.408;2023-04-15T03:19:48;37.40;;;27.10;;
14013;SDS011;49110;52.584;13.408;2023-04-15T03:20:49;36.50;;;28.80;;
14013;SDS011;49110;52.584;13.408;2023-04-15T03:21:50;36.93;;;27.47;;
14013;SDS011;49110;52.584;13.408;2023-04-15T03:22:51;36.57;;;28.03;;
14013;SDS011;49110;52.584;13.408;2023-04-15T03:23:51;35.47;;;27.17;;
14013;SDS011;49110;52.584;13.408;2023-04-15T03:24:52;38.50;;;28.10;;
14013;SDS011;49110;52.584;13.408;2023-04-15T03:25:52;37.67;;;27.27;;
14013;SDS011;49110;52.584;13.408;2023-04-15T03:26:56;34.10;;;26.37;;
14013;SDS011;49110;52.584;13.408;2023-04-15T03:27:56;38.07;;;26.73;;
14013;SDS011;49110;52.584;13.408;2023-04-15T03:28:57;38.13;;;27.37;;
14013;SDS011;49110;52.584;13.408;2023-04-15T03:29:57;36.97;;;27.57;;
14013;SDS011;49110;52.584;13.408;2023-04-15T03:30:58;39.27;;;28.33;;
14013;SDS011;49110;52.584;13.408;2023-04-15T03:31:59;37.80;;;28.23;;
14013;SDS011;49110;52.584;13.408;2023-04-15T03:33:00;41.63;;;28.80;;
14013;SDS011;49110;52.584;13.408;2023-04-15T03:34:00;34.73;;;26.80;;
14013;SDS011;49110;52.584;13.408;2023-04-15T03:35:01;40.93;;;28.83;;
14013;SDS011;49110;52.584;13.408;2023-04-15T03:36:01;37.47;;;27.67;;
14013;SDS011;49110;52.584;13.408;2023-04-15T03:37:02;34.00;;;26.60;;
14013;SDS011;49110;52.584;13.408;2023-04-15T03:38:02;35.53;;;27.13;;
14013;SDS011;49110;52.584;13.408;2023-04-15T03:39:02;36.87;;;28.27;;
14013;SDS011;49110;52.584;13.408;2023-04-15T03:40:03;34.73;;;26.67;;
14013;SDS011;49110;52.584;13.408;2023-04-15T03:41:04;35.93;;;26.70;;
14013;SDS011;49110;52.584;13.408;2023-04-15T03:42:04;35.33;;;27.23;;
14013;SDS011;49110;52.584;13.408;2023-04-15T03:43:05;42.43;;;29.20;;
14013;SDS011;49110;52.584;13.408;2023-04-15T03:44:06;33.90;;;27.87;;
14013;SDS011;49110;52.584;13.408;2023-04-15T03:45:07;38.97;;;27.63;;
14013;SDS011;49110;52.584;13.408;2023-04-15T03:46:08;35.73;;;27.53;;
14013;SDS011;49110;52.584;13.408;2023-04-15T03:47:08;35.93;;;27.37;;
14013;SDS011;49110;52.584;13.408;2023-04-15T03:48:09;36.40;;;26.80;;
14013;SDS011;49110;52.584;13.408;2023-04-15T03:49:09;31.73;;;25.73;;
14013;SDS011;49110;52.584;13.408;2023-04-15T03:50:10;35.67;;;27.67;;
14013;SDS011;49110;52.584;13.408;2023-04-15T03:51:10;37.53;;;27.13;;
14013;SDS011;49110;52.584;13.408;2023-04-15T03:52:11;35.03;;;26.90;;
14013;SDS011;49110;52.584;13.408;2023-04-15T03:53:11;35.47;;;27.67;;
14013;SDS011;49110;52.584;13.408;2023-04-15T03:54:12;33.27;;;26.77;;
14013;SDS011;49110;52.584;13.408;2023-04-15T03:55:14;35.27;;;27.53;;
14013;SDS011;49110;52.584;13.408;2023-04-15T03:56:14;34.20;;;26.77;;
14013;SDS011;49110;52.584;13.408;2023-04-15T03:57:15;32.47;;;26.07;;
14013;SDS011;49110;52.584;13.408;2023-04-15T03:58:15;32.47;;;25.43;;
14013;SDS011;49110;52.584;13.408;2023-04-15T03:59:16;31.87;;;26.13;;
14013;SDS011;49110;52.584;13.408;2023-04-15T04:00:16;36.90;;;27.03;;
14013;SDS011;49110;52.584;13.408;2023-04-15T04:01:17;31.03;;;24.53;;
14013;SDS011;49110;52.584;13.408;2023-04-15T04:02:18;31.97;;;25.00;;
14013;SDS011;49110;52.584;13.408;2023-04-15T04:03:18;32.13;;;24.63;;
14013;SDS011;49110;52.584;13.408;2023-04-15T04:04:19;30.27;;;24.23;;
14013;SDS011;49110;52.584;13.408;2023-04-15T04:05:20;34.73;;;26.30;;
14013;SDS011;49110;52.584;13.408;2023-04-15T04:06:20;32.87;;;24.83;;
14013;SDS011;49110;52.584;13.408;2023-04-15T04:07:21;31.67;;;25.33;;
14013;SDS011;49110;52.584;13.408;2023-04-15T04:08:23;32.87;;;25.97;;
14013;SDS011;49110;52.584;13.408;2023-04-15T04:09:23;30.90;;;24.83;;
14013;SDS011;49110;52.584;13.408;2023-04-15T04:10:25;32.43;;;25.30;;
14013;SDS011;49110;52.584;13.408;2023-04-15T04:11:26;34.27;;;26.80;;
14013;SDS011;49110;52.584;13.408;2023-04-15T04:12:27;34.40;;;26.07;;
14013;SDS011;49110;52.584;13.408;2023-04-15T04:13:27;35.80;;;25.83;;
14013;SDS011;49110;52.584;13.408;2023-04-15T04:14:28;31.70;;;24.90;;
14013;SDS011;49110;52.584;13.408;2023-04-15T04:15:28;32.53;;;25.57;;
14013;SDS011;49110;52.584;13.408;2023-04-15T04:16:29;32.73;;;26.63;;
14013;SDS011;49110;52.584;13.408;2023-04-15T04:17:29;31.83;;;25.80;;
14013;SDS011;49110;52.584;13.408;2023-04-15T04:18:32;31.83;;;24.97;;
14013;SDS011;49110;52.584;13.408;2023-04-15T04:19:33;38.77;;;28.23;;
14013;SDS011;49110;52.584;13.408;2023-04-15T04:20:33;33.60;;;25.53;;
14013;SDS011;49110;52.584;13.408;2023-04-15T04:21:34;30.73;;;23.50;;
14013;SDS011;49110;52.584;13.408;2023-04-15T04:22:38;31.67;;;24.37;;
14013;SDS011;49110;52.584;13.408;2023-04-15T04:23:39;31.40;;;25.43;;
14013;SDS011;49110;52.584;13.408;2023-04-15T04:24:40;34.23;;;26.27;;
14013;SDS011;49110;52.584;13.408;2023-04-15T04:25:40;32.47;;;25.77;;
14013;SDS011;49110;52.584;13.408;2023-04-15T04:26:41;33.60;;;25.67;;
14013;SDS011;49110;52.584;13.408;2023-04-15T04:27:41;33.20;;;25.30;;
14013;SDS011;49110;52.584;13.408;2023-04-15T04:28:42;35.80;;;26.10;;
14013;SDS011;49110;52.584;13.408;2023-04-15T04:29:42;32.43;;;25.97;;
14013;SDS011;49110;52.584;13.408;2023-04-15T04:30:43;32.87;;;26.27;;
14013;SDS011;49110;52.584;13.408;2023-04-15T04:31:44;33.87;;;26.27;;
14013;SDS011;49110;52.584;13.408;2023-04-15T04:32:45;35.67;;;25.20;;
14013;SDS011;49110;52.584;13.408;2023-04-15T04:33:46;35.10;;;26.50;;
14013;SDS011;49110;52.584;13.408;2023-04-15T04:34:46;33.43;;;25.33;;
14013;SDS011;49110;52.584;13.408;2023-04-15T04:35:47;33.57;;;26.27;;
14013;SDS011;49110;52.584;13.408;2023-04-15T04:36:47;32.90;;;24.97;;
14013;SDS011;49110;52.584;13.408;2023-04-15T04:37:48;29.97;;;24.87;;
14013;SDS011;49110;52.584;13.408;2023-04-15T04:38:48;31.70;;;25.10;;
14013;SDS011;49110;52.584;13.408;2023-04-15T04:39:49;30.60;;;25.07;;
14013;SDS011;49110;52.584;13.408;2023-04-15T04:40:50;29.83;;;24.17;;
14013;SDS011;49110;52.584;13.408;2023-04-15T04:41:50;30.47;;;24.53;;
14013;SDS011;49110;52.584;13.408;2023-04-15T04:42:51;33.97;;;26.50;;
14013;SDS011;49110;52.584;13.408;2023-04-15T04:43:52;35.33;;;25.67;;
14013;SDS011;49110;52.584;13.408;2023-04-15T04:44:52;33.47;;;24.90;;
14013;SDS011;49110;52.584;13.408;2023-04-15T04:45:53;32.87;;;24.60;;
14013;SDS011;49110;52.584;13.408;2023-04-15T04:46:53;29.77;;;25.13;;
14013;SDS011;49110;52.584;13.408;2023-04-15T04:47:54;32.07;;;25.23;;
14013;SDS011;49110;52.584;13.408;2023-04-15T04:48:54;32.30;;;25.83;;
14013;SDS011;49110;52.584;13.408;2023-04-15T04:49:55;31.53;;;25.20;;
14013;SDS011;49110;52.584;13.408;2023-04-15T04:50:55;32.77;;;26.13;;
14013;SDS011;49110;52.584;13.408;2023-04-15T04:51:56;31.63;;;24.77;;
14013;SDS011;49110;52.584;13.408;2023-04-15T04:52:56;34.43;;;24.87;;
14013;SDS011;49110;52.584;13.408;2023-04-15T04:53:57;32.33;;;25.53;;
14013;SDS011;49110;52.584;13.408;2023-04-15T04:54:57;32.43;;;25.47;;
14013;SDS011;49110;52.584;13.408;2023-04-15T04:55:58;31.27;;;24.40;;
14013;SDS011;49110;52.584;13.408;2023-04-15T04:56:58;32.17;;;24.83;;
14013;SDS011;49110;52.584;13.408;2023-04-15T04:57:59;30.97;;;24.23;;
14013;SDS011;49110;52.584;13.408;2023-04-15T04:59:00;32.43;;;24.73;;
14013;SDS011;49110;52.584;13.408;2023-04-15T05:00:01;32.07;;;25.17;;
14013;SDS011;49110;52.584;13.408;2023-04-15T05:01:03;30.40;;;24.53;;
14013;SDS011;49110;52.584;13.408;2023-04-15T05:02:04;30.73;;;24.77;;
14013;SDS011;49110;52.584;13.408;2023-04-15T05:03:05;32.30;;;24.50;;
14013;SDS011;49110;52.584;13.408;2023-04-15T05:04:06;30.33;;;23.73;;
14013;SDS011;49110;52.584;13.408;2023-04-15T05:05:06;30.77;;;24.03;;
14013;SDS011;49110;52.584;13.408;2023-04-15T05:06:07;31.00;;;24.80;;
14013;SDS011;49110;52.584;13.408;2023-04-15T05:07:08;30.27;;;23.00;;
14013;SDS011;49110;52.584;13.408;2023-04-15T05:08:08;28.93;;;23.83;;
14013;SDS011;49110;52.584;13.408;2023-04-15T05:09:09;28.87;;;22.93;;
14013;SDS011;49110;52.584;13.408;2023-04-15T05:10:09;31.10;;;24.53;;
14013;SDS011;49110;52.584;13.408;2023-04-15T05:11:10;29.47;;;23.60;;
14013;SDS011;49110;52.584;13.408;2023-04-15T05:12:11;28.87;;;23.30;;
14013;SDS011;49110;52.584;13.408;2023-04-15T05:13:14;27.33;;;22.47;;
14013;SDS011;49110;52.584;13.408;2023-04-15T05:14:14;29.80;;;23.00;;
14013;SDS011;49110;52.584;13.408;2023-04-15T05:15:15;26.87;;;22.50;;
14013;SDS011;49110;52.584;13.408;2023-04-15T05:16:15;26.53;;;21.93;;
14013;SDS011;49110;52.584;13.408;2023-04-15T05:17:16;28.83;;;22.93;;
14013;SDS011;49110;52.584;13.408;2023-04-15T05:18:17;29.43;;;22.43;;
14013;SDS011;49110;52.584;13.408;2023-04-15T05:19:17;27.30;;;23.13;;
14013;SDS011;49110;52.584;13.408;2023-04-15T05:20:18;25.70;;;22.40;;
14013;SDS011;49110;52.584;13.408;2023-04-15T05:21:19;27.87;;;22.60;;
14013;SDS011;49110;52.584;13.408;2023-04-15T05:22:19;26.80;;;22.20;;
14013;SDS011;49110;52.584;13.408;2023-04-15T05:23:20;25.97;;;21.57;;
14013;SDS011;49110;52.584;13.408;2023-04-15T05:24:21;25.17;;;21.33;;
14013;SDS011;49110;52.584;13.408;2023-04-15T05:25:22;27.13;;;21.90;;
14013;SDS011;49110;52.584;13.408;2023-04-15T05:26:22;25.47;;;21.23;;
14013;SDS011;49110;52.584;13.408;2023-04-15T05:27:23;26.47;;;21.20;;
14013;SDS011;49110;52.584;13.408;2023-04-15T05:28:24;27.00;;;21.53;;
14013;SDS011;49110;52.584;13.408;2023-04-15T05:29:24;25.70;;;20.80;;
14013;SDS011;49110;52.584;13.408;2023-04-15T05:30:25;27.97;;;21.70;;
14013;SDS011;49110;52.584;13.408;2023-04-15T05:31:25;25.87;;;21.77;;
14013;SDS011;49110;52.584;13.408;2023-04-15T05:32:26;26.03;;;20.90;;
14013;SDS011;49110;52.584;13.408;2023-04-15T05:33:26;25.40;;;21.30;;
14013;SDS011;49110;52.584;13.408;2023-04-15T05:34:27;25.13;;;20.63;;
14013;SDS011;49110;52.584;13.408;2023-04-15T05:35:27;27.73;;;20.60;;
14013;SDS011;49110;52.584;13.408;2023-04-15T05:36:28;27.57;;;20.73;;
14013;SDS011;49110;52.584;13.408;2023-04-15T05:37:28;24.17;;;21.57;;
14013;SDS011;49110;52.584;13.408;2023-04-15T05:38:29;25.87;;;21.30;;
14013;SDS011;49110;52.584;13.408;2023-04-15T05:39:30;27.27;;;21.30;;
14013;SDS011;49110;52.584;13.408;2023-04-15T05:40:31;27.43;;;20.57;;
14013;SDS011;49110;52.584;13.408;2023-04-15T05:41:32;26.07;;;20.60;;
14013;SDS011;49110;52.584;13.408;2023-04-15T05:42:33;24.77;;;21.57;;
14013;SDS011;49110;52.584;13.408;2023-04-15T05:43:34;23.33;;;20.63;;
14013;SDS011;49110;52.584;13.408;2023-04-15T05:44:35;27.23;;;22.20;;
14013;SDS011;49110;52.584;13.408;2023-04-15T05:45:35;25.33;;;20.37;;
14013;SDS011;49110;52.584;13.408;2023-04-15T05:46:36;26.87;;;20.33;;
14013;SDS011;49110;52.584;13.408;2023-04-15T05:47:36;23.13;;;19.63;;
14013;SDS011;49110;52.584;13.408;2023-04-15T05:48:37;23.63;;;20.20;;
14013;SDS011;49110;52.584;13.408;2023-04-15T05:49:37;23.60;;;19.80;;
14013;SDS011;49110;52.584;13.408;2023-04-15T05:50:41;25.03;;;19.93;;
14013;SDS011;49110;52.584;13.408;2023-04-15T05:51:41;22.87;;;20.33;;